sensor_id;sensor_type;location;lat;lon;timestamp;P1;durP1;ratioP1;P2;durP2;ratioP2
17361;SDS011;8798;51.938;4.348;2023-04-03T00:01:11;2.23;;;1.00;;
17361;SDS011;8798;51.938;4.348;2023-04-03T00:03:39;1.10;;;0.70;;
17361;SDS011;8798;51.938;4.348;2023-04-03T00:06:08;0.97;;;0.50;;
17361;SDS011;8798;51.938;4.348;2023-04-03T00:08:37;1.37;;;0.70;;
17361;SDS011;8798;51.938;4.348;2023-04-03T00:11:06;2.70;;;1.00;;
17361;SDS011;8798;51.938;4.348;2023-04-03T00:13:36;1.77;;;0.80;;
17361;SDS011;8798;51.938;4.348;2023-04-03T00:16:05;3.43;;;0.90;;
17361;SDS011;8798;51.938;4.348;2023-04-03T00:18:34;0.93;;;0.60;;
17361;SDS011;8798;51.938;4.348;2023-04-03T00:21:02;0.77;;;0.60;;
17361;SDS011;8798;51.938;4.348;2023-04-03T00:23:30;3.30;;;0.90;;
17361;SDS011;8798;51.938;4.348;2023-04-03T00:25:58;0.67;;;0.53;;
17361;SDS011;8798;51.938;4.348;2023-04-03T00:28:26;0.70;;;0.60;;
17361;SDS011;8798;51.938;4.348;2023-04-03T00:30:55;2.77;;;0.80;;
17361;SDS011;8798;51.938;4.348;2023-04-03T00:33:23;3.47;;;0.70;;
17361;SDS011;8798;51.938;4.348;2023-04-03T00:35:51;2.53;;;0.90;;
17361;SDS011;8798;51.938;4.348;2023-04-03T00:38:19;2.30;;;1.10;;
17361;SDS011;8798;51.938;4.348;2023-04-03T00:40:48;1.50;;;0.80;;
17361;SDS011;8798;51.938;4.348;2023-04-03T00:43:18;3.13;;;1.20;;
17361;SDS011;8798;51.938;4.348;2023-04-03T00:45:47;1.77;;;0.90;;
17361;SDS011;8798;51.938;4.348;2023-04-03T00:48:20;1.13;;;0.63;;
17361;SDS011;8798;51.938;4.348;2023-04-03T00:50:50;2.40;;;0.80;;
17361;SDS011;8798;51.938;4.348;2023-04-03T00:53:21;1.27;;;0.70;;
17361;SDS011;8798;51.938;4.348;2023-04-03T00:55:52;1.33;;;0.73;;
17361;SDS011;8798;51.938;4.348;2023-04-03T00:58:24;1.43;;;0.73;;
17361;SDS011;8798;51.938;4.348;2023-04-03T01:00:56;1.50;;;0.70;;
17361;SDS011;8798;51.938;4.348;2023-04-03T01:03:27;2.17;;;0.90;;
17361;SDS011;8798;51.938;4.348;2023-04-03T01:05:57;2.07;;;1.00;;
17361;SDS011;8798;51.938;4.348;2023-04-03T01:08:26;2.13;;;0.60;;
17361;SDS011;8798;51.938;4.348;2023-04-03T01:10:53;1.37;;;0.70;;
17361;SDS011;8798;51.938;4.348;2023-04-03T01:13:23;0.80;;;0.70;;
17361;SDS011;8798;51.938;4.348;2023-04-03T01:15:53;3.17;;;0.70;;
17361;SDS011;8798;51.938;4.348;2023-04-03T01:18:22;1.53;;;0.80;;
17361;SDS011;8798;51.938;4.348;2023-04-03T01:24:02;1.93;;;0.73;;
17361;SDS011;8798;51.938;4.348;2023-04-03T01:26:38;2.37;;;0.97;;
17361;SDS011;8798;51.938;4.348;2023-04-03T01:29:06;1.97;;;1.17;;
17361;SDS011;8798;51.938;4.348;2023-04-03T01:31:47;0.90;;;0.70;;
17361;SDS011;8798;51.938;4.348;2023-04-03T01:34:17;2.33;;;1.07;;
17361;SDS011;8798;51.938;4.348;2023-04-03T01:36:45;1.30;;;0.80;;
17361;SDS011;8798;51.938;4.348;2023-04-03T01:39:13;1.53;;;0.67;;
17361;SDS011;8798;51.938;4.348;2023-04-03T01:41:41;0.73;;;0.73;;
17361;SDS011;8798;51.938;4.348;2023-04-03T01:44:09;1.80;;;0.90;;
17361;SDS011;8798;51.938;4.348;2023-04-03T01:46:37;2.40;;;0.70;;
17361;SDS011;8798;51.938;4.348;2023-04-03T01:49:06;2.50;;;0.70;;
17361;SDS011;8798;51.938;4.348;2023-04-03T01:51:34;1.17;;;0.80;;
17361;SDS011;8798;51.938;4.348;2023-04-03T01:54:02;2.03;;;1.00;;
17361;SDS011;8798;51.938;4.348;2023-04-03T01:56:30;6.10;;;1.00;;
17361;SDS011;8798;51.938;4.348;2023-04-03T01:58:58;1.13;;;0.77;;
17361;SDS011;8798;51.938;4.348;2023-04-03T02:01:25;2.07;;;1.00;;
17361;SDS011;8798;51.938;4.348;2023-04-03T02:03:53;3.53;;;0.90;;
17361;SDS011;8798;51.938;4.348;2023-04-03T02:06:23;2.53;;;0.97;;
17361;SDS011;8798;51.938;4.348;2023-04-03T02:08:51;0.83;;;0.60;;
17361;SDS011;8798;51.938;4.348;2023-04-03T02:11:19;1.83;;;1.00;;
17361;SDS011;8798;51.938;4.348;2023-04-03T02:13:47;2.30;;;0.90;;
17361;SDS011;8798;51.938;4.348;2023-04-03T02:16:15;1.70;;;1.00;;
17361;SDS011;8798;51.938;4.348;2023-04-03T02:18:43;2.27;;;0.67;;
17361;SDS011;8798;51.938;4.348;2023-04-03T02:21:11;1.17;;;0.73;;
17361;SDS011;8798;51.938;4.348;2023-04-03T02:23:40;2.33;;;0.80;;
17361;SDS011;8798;51.938;4.348;2023-04-03T02:26:09;0.97;;;0.67;;
17361;SDS011;8798;51.938;4.348;2023-04-03T02:28:38;1.23;;;0.70;;
17361;SDS011;8798;51.938;4.348;2023-04-03T02:31:07;1.47;;;0.80;;
17361;SDS011;8798;51.938;4.348;2023-04-03T02:33:36;2.13;;;0.73;;
17361;SDS011;8798;51.938;4.348;2023-04-03T02:36:05;1.50;;;0.80;;
17361;SDS011;8798;51.938;4.348;2023-04-03T02:38:34;3.30;;;0.97;;
17361;SDS011;8798;51.938;4.348;2023-04-03T02:41:04;3.23;;;0.83;;
17361;SDS011;8798;51.938;4.348;2023-04-03T02:43:33;2.07;;;1.03;;
17361;SDS011;8798;51.938;4.348;2023-04-03T02:46:01;3.47;;;0.77;;
17361;SDS011;8798;51.938;4.348;2023-04-03T02:48:29;2.00;;;1.10;;
17361;SDS011;8798;51.938;4.348;2023-04-03T02:50:57;2.03;;;1.03;;
17361;SDS011;8798;51.938;4.348;2023-04-03T02:53:25;2.90;;;1.03;;
17361;SDS011;8798;51.938;4.348;2023-04-03T02:55:53;2.67;;;0.90;;
17361;SDS011;8798;51.938;4.348;2023-04-03T02:58:22;2.40;;;0.90;;
17361;SDS011;8798;51.938;4.348;2023-04-03T03:00:49;1.93;;;0.90;;
17361;SDS011;8798;51.938;4.348;2023-04-03T03:03:17;2.50;;;0.83;;
17361;SDS011;8798;51.938;4.348;2023-04-03T03:05:45;3.43;;;0.80;;
17361;SDS011;8798;51.938;4.348;2023-04-03T03:08:14;1.50;;;0.70;;
17361;SDS011;8798;51.938;4.348;2023-04-03T03:10:42;2.50;;;0.70;;
17361;SDS011;8798;51.938;4.348;2023-04-03T03:13:09;1.53;;;0.90;;
17361;SDS011;8798;51.938;4.348;2023-04-03T03:15:39;3.93;;;0.93;;
17361;SDS011;8798;51.938;4.348;2023-04-03T03:18:06;1.17;;;0.60;;
17361;SDS011;8798;51.938;4.348;2023-04-03T03:20:34;2.57;;;1.03;;
17361;SDS011;8798;51.938;4.348;2023-04-03T03:23:03;1.47;;;0.97;;
17361;SDS011;8798;51.938;4.348;2023-04-03T03:25:30;0.83;;;0.53;;
17361;SDS011;8798;51.938;4.348;2023-04-03T03:27:58;1.50;;;0.83;;
17361;SDS011;8798;51.938;4.348;2023-04-03T03:30:26;1.00;;;0.90;;
17361;SDS011;8798;51.938;4.348;2023-04-03T03:32:55;1.27;;;0.73;;
17361;SDS011;8798;51.938;4.348;2023-04-03T03:35:23;2.80;;;1.00;;
17361;SDS011;8798;51.938;4.348;2023-04-03T03:37:51;2.70;;;0.80;;
17361;SDS011;8798;51.938;4.348;2023-04-03T03:40:19;2.03;;;0.90;;
17361;SDS011;8798;51.938;4.348;2023-04-03T03:42:47;3.53;;;0.90;;
17361;SDS011;8798;51.938;4.348;2023-04-03T03:45:15;1.60;;;0.90;;
17361;SDS011;8798;51.938;4.348;2023-04-03T03:47:43;1.57;;;0.97;;
17361;SDS011;8798;51.938;4.348;2023-04-03T03:50:13;1.93;;;0.90;;
17361;SDS011;8798;51.938;4.348;2023-04-03T03:52:41;2.50;;;0.90;;
17361;SDS011;8798;51.938;4.348;2023-04-03T03:55:09;2.37;;;1.00;;
17361;SDS011;8798;51.938;4.348;2023-04-03T03:57:37;1.27;;;0.97;;
17361;SDS011;8798;51.938;4.348;2023-04-03T04:00:05;2.10;;;1.10;;
17361;SDS011;8798;51.938;4.348;2023-04-03T04:02:35;1.97;;;0.97;;
17361;SDS011;8798;51.938;4.348;2023-04-03T04:05:03;2.97;;;1.40;;
17361;SDS011;8798;51.938;4.348;2023-04-03T04:07:33;1.57;;;0.93;;
17361;SDS011;8798;51.938;4.348;2023-04-03T04:10:01;2.60;;;1.20;;
17361;SDS011;8798;51.938;4.348;2023-04-03T04:12:29;1.97;;;0.83;;
17361;SDS011;8798;51.938;4.348;2023-04-03T04:14:57;1.97;;;1.10;;
17361;SDS011;8798;51.938;4.348;2023-04-03T04:17:25;3.73;;;1.20;;
17361;SDS011;8798;51.938;4.348;2023-04-03T04:19:53;1.63;;;1.00;;
17361;SDS011;8798;51.938;4.348;2023-04-03T04:22:21;2.57;;;1.20;;
17361;SDS011;8798;51.938;4.348;2023-04-03T04:24:50;4.50;;;1.30;;
17361;SDS011;8798;51.938;4.348;2023-04-03T04:27:18;2.17;;;1.00;;
17361;SDS011;8798;51.938;4.348;2023-04-03T04:29:46;3.10;;;1.00;;
17361;SDS011;8798;51.938;4.348;2023-04-03T04:32:14;1.67;;;1.10;;
17361;SDS011;8798;51.938;4.348;2023-04-03T04:34:42;2.37;;;1.10;;
17361;SDS011;8798;51.938;4.348;2023-04-03T04:37:09;2.13;;;1.00;;
17361;SDS011;8798;51.938;4.348;2023-04-03T04:39:37;2.00;;;1.10;;
17361;SDS011;8798;51.938;4.348;2023-04-03T04:42:06;1.97;;;1.07;;
17361;SDS011;8798;51.938;4.348;2023-04-03T04:44:41;2.03;;;1.30;;
17361;SDS011;8798;51.938;4.348;2023-04-03T04:47:09;2.90;;;1.27;;
17361;SDS011;8798;51.938;4.348;2023-04-03T04:49:37;3.53;;;1.20;;
17361;SDS011;8798;51.938;4.348;2023-04-03T04:52:05;4.30;;;1.50;;
17361;SDS011;8798;51.938;4.348;2023-04-03T04:54:33;2.47;;;1.23;;
17361;SDS011;8798;51.938;4.348;2023-04-03T04:57:01;2.07;;;1.17;;
17361;SDS011;8798;51.938;4.348;2023-04-03T04:59:30;2.30;;;1.23;;
17361;SDS011;8798;51.938;4.348;2023-04-03T05:01:58;3.07;;;1.40;;
17361;SDS011;8798;51.938;4.348;2023-04-03T05:04:27;2.60;;;1.40;;
17361;SDS011;8798;51.938;4.348;2023-04-03T05:06:54;2.67;;;1.20;;
17361;SDS011;8798;51.938;4.348;2023-04-03T05:09:22;3.23;;;1.07;;
17361;SDS011;8798;51.938;4.348;2023-04-03T05:11:50;2.60;;;1.20;;
17361;SDS011;8798;51.938;4.348;2023-04-03T05:14:18;2.63;;;1.17;;
17361;SDS011;8798;51.938;4.348;2023-04-03T05:16:47;3.03;;;1.30;;
17361;SDS011;8798;51.938;4.348;2023-04-03T05:19:19;3.10;;;1.40;;
17361;SDS011;8798;51.938;4.348;2023-04-03T05:21:46;2.70;;;1.20;;
17361;SDS011;8798;51.938;4.348;2023-04-03T05:24:15;1.83;;;1.27;;
17361;SDS011;8798;51.938;4.348;2023-04-03T05:26:43;3.43;;;1.13;;
17361;SDS011;8798;51.938;4.348;2023-04-03T05:29:11;2.30;;;1.20;;
17361;SDS011;8798;51.938;4.348;2023-04-03T05:31:39;3.00;;;1.50;;
17361;SDS011;8798;51.938;4.348;2023-04-03T05:34:08;1.77;;;0.93;;
17361;SDS011;8798;51.938;4.348;2023-04-03T05:36:36;3.97;;;1.07;;
17361;SDS011;8798;51.938;4.348;2023-04-03T05:39:04;1.57;;;1.03;;
17361;SDS011;8798;51.938;4.348;2023-04-03T05:41:32;1.53;;;1.10;;
17361;SDS011;8798;51.938;4.348;2023-04-03T05:44:00;3.70;;;1.33;;
17361;SDS011;8798;51.938;4.348;2023-04-03T05:46:28;3.33;;;1.20;;
17361;SDS011;8798;51.938;4.348;2023-04-03T05:48:56;2.40;;;1.40;;
17361;SDS011;8798;51.938;4.348;2023-04-03T05:51:28;1.90;;;1.23;;
17361;SDS011;8798;51.938;4.348;2023-04-03T05:54:03;1.33;;;1.10;;
17361;SDS011;8798;51.938;4.348;2023-04-03T05:56:37;1.70;;;1.10;;
17361;SDS011;8798;51.938;4.348;2023-04-03T05:59:05;2.40;;;1.10;;
17361;SDS011;8798;51.938;4.348;2023-04-03T06:01:33;3.47;;;1.30;;
17361;SDS011;8798;51.938;4.348;2023-04-03T06:04:01;2.07;;;1.30;;
17361;SDS011;8798;51.938;4.348;2023-04-03T06:06:43;2.27;;;1.50;;
17361;SDS011;8798;51.938;4.348;2023-04-03T06:09:12;3.03;;;1.23;;
17361;SDS011;8798;51.938;4.348;2023-04-03T06:11:40;2.43;;;1.30;;
17361;SDS011;8798;51.938;4.348;2023-04-03T06:14:09;2.20;;;1.10;;
17361;SDS011;8798;51.938;4.348;2023-04-03T06:16:38;2.33;;;1.20;;
17361;SDS011;8798;51.938;4.348;2023-04-03T06:19:06;5.10;;;1.40;;
17361;SDS011;8798;51.938;4.348;2023-04-03T06:21:35;1.93;;;1.27;;
17361;SDS011;8798;51.938;4.348;2023-04-03T06:24:18;3.27;;;1.50;;
17361;SDS011;8798;51.938;4.348;2023-04-03T06:26:47;4.60;;;1.30;;
17361;SDS011;8798;51.938;4.348;2023-04-03T06:29:17;1.87;;;1.20;;
17361;SDS011;8798;51.938;4.348;2023-04-03T06:31:46;5.37;;;2.10;;
17361;SDS011;8798;51.938;4.348;2023-04-03T06:34:14;1.97;;;1.20;;
17361;SDS011;8798;51.938;4.348;2023-04-03T06:36:44;3.93;;;1.40;;
17361;SDS011;8798;51.938;4.348;2023-04-03T06:39:12;3.30;;;1.03;;
17361;SDS011;8798;51.938;4.348;2023-04-03T06:41:44;2.77;;;1.10;;
17361;SDS011;8798;51.938;4.348;2023-04-03T06:44:12;3.80;;;1.50;;
17361;SDS011;8798;51.938;4.348;2023-04-03T06:46:42;1.53;;;1.03;;
17361;SDS011;8798;51.938;4.348;2023-04-03T06:49:11;4.20;;;1.43;;
17361;SDS011;8798;51.938;4.348;2023-04-03T06:51:40;6.87;;;1.50;;
17361;SDS011;8798;51.938;4.348;2023-04-03T06:54:08;2.20;;;1.50;;
17361;SDS011;8798;51.938;4.348;2023-04-03T06:56:36;6.17;;;1.80;;
17361;SDS011;8798;51.938;4.348;2023-04-03T06:59:05;4.73;;;1.40;;
17361;SDS011;8798;51.938;4.348;2023-04-03T07:01:33;2.53;;;1.07;;
17361;SDS011;8798;51.938;4.348;2023-04-03T07:04:01;3.23;;;1.40;;
17361;SDS011;8798;51.938;4.348;2023-04-03T07:06:29;2.87;;;1.07;;
17361;SDS011;8798;51.938;4.348;2023-04-03T07:08:58;3.83;;;1.10;;
17361;SDS011;8798;51.938;4.348;2023-04-03T07:11:27;2.63;;;1.17;;
17361;SDS011;8798;51.938;4.348;2023-04-03T07:13:55;3.87;;;1.17;;
17361;SDS011;8798;51.938;4.348;2023-04-03T07:16:24;1.40;;;0.90;;
17361;SDS011;8798;51.938;4.348;2023-04-03T07:18:52;3.37;;;1.10;;
17361;SDS011;8798;51.938;4.348;2023-04-03T07:21:20;2.10;;;1.23;;
17361;SDS011;8798;51.938;4.348;2023-04-03T07:23:48;3.10;;;1.37;;
17361;SDS011;8798;51.938;4.348;2023-04-03T07:26:16;2.20;;;1.30;;
17361;SDS011;8798;51.938;4.348;2023-04-03T07:28:44;2.93;;;1.57;;
17361;SDS011;8798;51.938;4.348;2023-04-03T07:31:14;2.63;;;1.10;;
17361;SDS011;8798;51.938;4.348;2023-04-03T07:33:45;3.70;;;1.30;;
17361;SDS011;8798;51.938;4.348;2023-04-03T07:36:14;4.93;;;1.50;;
17361;SDS011;8798;51.938;4.348;2023-04-03T07:38:44;5.87;;;1.30;;
17361;SDS011;8798;51.938;4.348;2023-04-03T07:41:12;3.93;;;1.40;;
17361;SDS011;8798;51.938;4.348;2023-04-03T07:43:43;1.93;;;1.00;;
17361;SDS011;8798;51.938;4.348;2023-04-03T07:46:12;2.30;;;1.13;;
17361;SDS011;8798;51.938;4.348;2023-04-03T07:48:40;6.17;;;1.23;;
17361;SDS011;8798;51.938;4.348;2023-04-03T07:51:10;3.00;;;1.30;;
17361;SDS011;8798;51.938;4.348;2023-04-03T07:53:38;4.67;;;1.40;;
17361;SDS011;8798;51.938;4.348;2023-04-03T07:56:05;2.73;;;1.10;;
17361;SDS011;8798;51.938;4.348;2023-04-03T07:58:34;2.70;;;1.00;;
17361;SDS011;8798;51.938;4.348;2023-04-03T08:01:02;7.60;;;1.10;;
17361;SDS011;8798;51.938;4.348;2023-04-03T08:03:30;2.03;;;0.90;;
17361;SDS011;8798;51.938;4.348;2023-04-03T08:06:01;3.43;;;1.50;;
17361;SDS011;8798;51.938;4.348;2023-04-03T08:08:34;4.50;;;1.20;;
17361;SDS011;8798;51.938;4.348;2023-04-03T08:11:02;2.83;;;1.00;;
17361;SDS011;8798;51.938;4.348;2023-04-03T08:13:32;4.33;;;1.23;;
17361;SDS011;8798;51.938;4.348;2023-04-03T08:16:08;4.60;;;0.93;;
17361;SDS011;8798;51.938;4.348;2023-04-03T08:18:38;3.23;;;1.27;;
17361;SDS011;8798;51.938;4.348;2023-04-03T08:21:06;4.50;;;1.30;;
17361;SDS011;8798;51.938;4.348;2023-04-03T08:23:36;3.40;;;0.80;;
17361;SDS011;8798;51.938;4.348;2023-04-03T08:26:08;2.13;;;1.00;;
17361;SDS011;8798;51.938;4.348;2023-04-03T08:28:37;2.87;;;0.80;;
17361;SDS011;8798;51.938;4.348;2023-04-03T08:31:05;1.87;;;1.07;;
17361;SDS011;8798;51.938;4.348;2023-04-03T08:33:34;1.90;;;1.00;;
17361;SDS011;8798;51.938;4.348;2023-04-03T08:36:03;3.23;;;0.87;;
17361;SDS011;8798;51.938;4.348;2023-04-03T08:38:32;4.20;;;1.03;;
17361;SDS011;8798;51.938;4.348;2023-04-03T08:41:07;1.20;;;0.73;;
17361;SDS011;8798;51.938;4.348;2023-04-03T08:43:45;2.70;;;1.00;;
17361;SDS011;8798;51.938;4.348;2023-04-03T08:46:23;2.67;;;1.27;;
17361;SDS011;8798;51.938;4.348;2023-04-03T08:48:59;3.70;;;1.47;;
17361;SDS011;8798;51.938;4.348;2023-04-03T08:51:28;5.47;;;1.20;;
17361;SDS011;8798;51.938;4.348;2023-04-03T08:53:58;3.00;;;1.47;;
17361;SDS011;8798;51.938;4.348;2023-04-03T08:56:32;1.40;;;0.80;;
17361;SDS011;8798;51.938;4.348;2023-04-03T08:59:03;3.13;;;0.90;;
17361;SDS011;8798;51.938;4.348;2023-04-03T09:01:35;2.77;;;0.97;;
17361;SDS011;8798;51.938;4.348;2023-04-03T09:04:09;2.47;;;0.93;;
17361;SDS011;8798;51.938;4.348;2023-04-03T09:06:40;1.80;;;0.87;;
17361;SDS011;8798;51.938;4.348;2023-04-03T09:09:15;2.63;;;0.90;;
17361;SDS011;8798;51.938;4.348;2023-04-03T09:11:55;1.30;;;0.83;;
17361;SDS011;8798;51.938;4.348;2023-04-03T09:14:36;1.07;;;0.80;;
17361;SDS011;8798;51.938;4.348;2023-04-03T09:17:09;1.20;;;0.90;;
17361;SDS011;8798;51.938;4.348;2023-04-03T09:19:46;5.07;;;1.20;;
17361;SDS011;8798;51.938;4.348;2023-04-03T09:22:20;2.23;;;0.80;;
17361;SDS011;8798;51.938;4.348;2023-04-03T09:24:52;1.50;;;0.80;;
17361;SDS011;8798;51.938;4.348;2023-04-03T09:27:26;4.07;;;0.90;;
17361;SDS011;8798;51.938;4.348;2023-04-03T09:29:55;2.30;;;0.87;;
17361;SDS011;8798;51.938;4.348;2023-04-03T09:32:26;3.13;;;0.90;;
17361;SDS011;8798;51.938;4.348;2023-04-03T09:34:57;3.37;;;1.00;;
17361;SDS011;8798;51.938;4.348;2023-04-03T09:37:46;2.77;;;1.10;;
17361;SDS011;8798;51.938;4.348;2023-04-03T09:40:31;2.30;;;0.77;;
17361;SDS011;8798;51.938;4.348;2023-04-03T09:43:20;5.07;;;1.00;;
17361;SDS011;8798;51.938;4.348;2023-04-03T09:45:50;1.53;;;0.60;;
17361;SDS011;8798;51.938;4.348;2023-04-03T09:48:20;1.33;;;0.60;;
17361;SDS011;8798;51.938;4.348;2023-04-03T09:50:57;1.23;;;0.70;;
17361;SDS011;8798;51.938;4.348;2023-04-03T09:53:30;3.20;;;0.67;;
17361;SDS011;8798;51.938;4.348;2023-04-03T09:56:01;2.20;;;0.67;;
17361;SDS011;8798;51.938;4.348;2023-04-03T09:58:33;0.97;;;0.60;;
17361;SDS011;8798;51.938;4.348;2023-04-03T10:01:21;1.13;;;0.60;;
17361;SDS011;8798;51.938;4.348;2023-04-03T10:04:04;4.17;;;0.50;;
17361;SDS011;8798;51.938;4.348;2023-04-03T10:06:34;3.27;;;0.70;;
17361;SDS011;8798;51.938;4.348;2023-04-03T10:09:17;1.53;;;0.80;;
17361;SDS011;8798;51.938;4.348;2023-04-03T10:11:57;2.90;;;0.70;;
17361;SDS011;8798;51.938;4.348;2023-04-03T10:14:32;0.50;;;0.50;;
17361;SDS011;8798;51.938;4.348;2023-04-03T10:17:09;2.37;;;0.70;;
17361;SDS011;8798;51.938;4.348;2023-04-03T10:19:46;2.23;;;0.73;;
17361;SDS011;8798;51.938;4.348;2023-04-03T10:22:20;1.50;;;0.80;;
17361;SDS011;8798;51.938;4.348;2023-04-03T10:24:54;0.83;;;0.63;;
17361;SDS011;8798;51.938;4.348;2023-04-03T10:27:41;2.53;;;0.80;;
17361;SDS011;8798;51.938;4.348;2023-04-03T10:30:22;1.03;;;0.90;;
17361;SDS011;8798;51.938;4.348;2023-04-03T10:33:03;0.70;;;0.50;;
17361;SDS011;8798;51.938;4.348;2023-04-03T10:35:47;0.40;;;0.40;;
17361;SDS011;8798;51.938;4.348;2023-04-03T10:38:28;2.27;;;0.60;;
17361;SDS011;8798;51.938;4.348;2023-04-03T10:41:07;0.60;;;0.40;;
17361;SDS011;8798;51.938;4.348;2023-04-03T10:43:43;0.70;;;0.50;;
17361;SDS011;8798;51.938;4.348;2023-04-03T10:46:20;1.53;;;0.83;;
17361;SDS011;8798;51.938;4.348;2023-04-03T10:48:59;0.40;;;0.40;;
17361;SDS011;8798;51.938;4.348;2023-04-03T10:51:40;2.17;;;0.43;;
17361;SDS011;8798;51.938;4.348;2023-04-03T10:54:11;0.93;;;0.53;;
17361;SDS011;8798;51.938;4.348;2023-04-03T10:56:42;1.20;;;0.60;;
17361;SDS011;8798;51.938;4.348;2023-04-03T10:59:27;0.70;;;0.50;;
17361;SDS011;8798;51.938;4.348;2023-04-03T11:02:01;0.37;;;0.37;;
17361;SDS011;8798;51.938;4.348;2023-04-03T11:04:34;1.97;;;0.60;;
17361;SDS011;8798;51.938;4.348;2023-04-03T11:07:08;0.63;;;0.33;;
17361;SDS011;8798;51.938;4.348;2023-04-03T11:09:41;10.67;;;0.70;;
17361;SDS011;8798;51.938;4.348;2023-04-03T11:12:14;1.33;;;0.80;;
17361;SDS011;8798;51.938;4.348;2023-04-03T11:14:48;2.50;;;0.50;;
17361;SDS011;8798;51.938;4.348;2023-04-03T11:17:21;1.03;;;0.50;;
17361;SDS011;8798;51.938;4.348;2023-04-03T11:19:59;1.67;;;0.70;;
17361;SDS011;8798;51.938;4.348;2023-04-03T11:22:29;1.00;;;0.50;;
17361;SDS011;8798;51.938;4.348;2023-04-03T11:25:02;1.67;;;0.60;;
17361;SDS011;8798;51.938;4.348;2023-04-03T11:27:35;0.37;;;0.37;;
17361;SDS011;8798;51.938;4.348;2023-04-03T11:30:12;1.30;;;0.77;;
17361;SDS011;8798;51.938;4.348;2023-04-03T11:32:54;0.70;;;0.60;;
17361;SDS011;8798;51.938;4.348;2023-04-03T11:35:32;1.00;;;0.50;;
17361;SDS011;8798;51.938;4.348;2023-04-03T11:38:02;1.47;;;0.70;;
17361;SDS011;8798;51.938;4.348;2023-04-03T11:40:33;1.03;;;0.63;;
17361;SDS011;8798;51.938;4.348;2023-04-03T11:43:05;0.33;;;0.33;;
17361;SDS011;8798;51.938;4.348;2023-04-03T11:45:36;1.30;;;0.43;;
17361;SDS011;8798;51.938;4.348;2023-04-03T11:48:40;1.00;;;0.70;;
17361;SDS011;8798;51.938;4.348;2023-04-03T12:12:56;0.70;;;0.50;;
17361;SDS011;8798;51.938;4.348;2023-04-03T12:15:41;0.63;;;0.43;;
17361;SDS011;8798;51.938;4.348;2023-04-03T12:24:37;1.43;;;0.50;;
17361;SDS011;8798;51.938;4.348;2023-04-03T12:27:14;1.13;;;0.43;;
17361;SDS011;8798;51.938;4.348;2023-04-03T12:29:49;0.90;;;0.50;;
17361;SDS011;8798;51.938;4.348;2023-04-03T12:32:29;0.40;;;0.30;;
17361;SDS011;8798;51.938;4.348;2023-04-03T12:35:14;0.33;;;0.27;;
17361;SDS011;8798;51.938;4.348;2023-04-03T12:37:51;0.90;;;0.60;;
17361;SDS011;8798;51.938;4.348;2023-04-03T12:40:39;0.30;;;0.30;;
17361;SDS011;8798;51.938;4.348;2023-04-03T12:43:18;1.07;;;0.40;;
17361;SDS011;8798;51.938;4.348;2023-04-03T12:45:56;1.00;;;0.57;;
17361;SDS011;8798;51.938;4.348;2023-04-03T12:48:30;0.30;;;0.30;;
17361;SDS011;8798;51.938;4.348;2023-04-03T12:51:02;1.03;;;0.43;;
17361;SDS011;8798;51.938;4.348;2023-04-03T12:53:31;0.87;;;0.40;;
17361;SDS011;8798;51.938;4.348;2023-04-03T12:58:48;1.63;;;0.40;;
17361;SDS011;8798;51.938;4.348;2023-04-03T13:01:18;0.93;;;0.40;;
17361;SDS011;8798;51.938;4.348;2023-04-03T13:03:49;0.80;;;0.53;;
17361;SDS011;8798;51.938;4.348;2023-04-03T13:06:22;5.23;;;0.60;;
17361;SDS011;8798;51.938;4.348;2023-04-03T13:08:53;1.77;;;0.63;;
17361;SDS011;8798;51.938;4.348;2023-04-03T13:11:24;5.10;;;0.60;;
17361;SDS011;8798;51.938;4.348;2023-04-03T13:13:55;0.97;;;0.50;;
17361;SDS011;8798;51.938;4.348;2023-04-03T13:16:26;2.13;;;0.50;;
17361;SDS011;8798;51.938;4.348;2023-04-03T13:18:54;1.87;;;0.70;;
17361;SDS011;8798;51.938;4.348;2023-04-03T13:21:25;0.80;;;0.50;;
17361;SDS011;8798;51.938;4.348;2023-04-03T13:23:56;0.80;;;0.60;;
17361;SDS011;8798;51.938;4.348;2023-04-03T13:26:40;1.43;;;0.50;;
17361;SDS011;8798;51.938;4.348;2023-04-03T13:29:19;1.10;;;0.67;;
17361;SDS011;8798;51.938;4.348;2023-04-03T13:31:57;3.77;;;0.50;;
17361;SDS011;8798;51.938;4.348;2023-04-03T13:34:27;1.77;;;0.73;;
17361;SDS011;8798;51.938;4.348;2023-04-03T13:36:59;1.87;;;0.50;;
17361;SDS011;8798;51.938;4.348;2023-04-03T13:39:29;1.37;;;0.70;;
17361;SDS011;8798;51.938;4.348;2023-04-03T13:41:59;1.33;;;0.60;;
17361;SDS011;8798;51.938;4.348;2023-04-03T13:44:30;1.37;;;0.50;;
17361;SDS011;8798;51.938;4.348;2023-04-03T13:47:13;2.80;;;0.60;;
17361;SDS011;8798;51.938;4.348;2023-04-03T13:49:44;1.07;;;0.57;;
17361;SDS011;8798;51.938;4.348;2023-04-03T13:52:22;1.23;;;0.67;;
17361;SDS011;8798;51.938;4.348;2023-04-03T13:55:00;2.97;;;0.50;;
17361;SDS011;8798;51.938;4.348;2023-04-03T13:57:35;0.83;;;0.60;;
17361;SDS011;8798;51.938;4.348;2023-04-03T14:02:54;1.00;;;0.60;;
17361;SDS011;8798;51.938;4.348;2023-04-03T14:05:24;1.23;;;0.70;;
17361;SDS011;8798;51.938;4.348;2023-04-03T14:07:54;1.83;;;0.70;;
17361;SDS011;8798;51.938;4.348;2023-04-03T14:10:23;1.20;;;0.70;;
17361;SDS011;8798;51.938;4.348;2023-04-03T14:12:50;1.77;;;1.03;;
17361;SDS011;8798;51.938;4.348;2023-04-03T14:15:19;3.37;;;0.70;;
17361;SDS011;8798;51.938;4.348;2023-04-03T14:17:51;3.13;;;0.83;;
17361;SDS011;8798;51.938;4.348;2023-04-03T14:20:21;2.10;;;0.73;;
17361;SDS011;8798;51.938;4.348;2023-04-03T14:22:51;1.50;;;0.73;;
17361;SDS011;8798;51.938;4.348;2023-04-03T14:25:21;1.33;;;0.60;;
17361;SDS011;8798;51.938;4.348;2023-04-03T14:27:51;2.50;;;0.80;;
17361;SDS011;8798;51.938;4.348;2023-04-03T14:30:21;1.60;;;0.70;;
17361;SDS011;8798;51.938;4.348;2023-04-03T14:32:51;1.47;;;0.80;;
17361;SDS011;8798;51.938;4.348;2023-04-03T14:35:19;1.40;;;0.50;;
17361;SDS011;8798;51.938;4.348;2023-04-03T14:37:47;0.83;;;0.70;;
17361;SDS011;8798;51.938;4.348;2023-04-03T14:40:17;1.57;;;0.70;;
17361;SDS011;8798;51.938;4.348;2023-04-03T14:42:48;0.93;;;0.60;;
17361;SDS011;8798;51.938;4.348;2023-04-03T14:45:16;2.00;;;0.83;;
17361;SDS011;8798;51.938;4.348;2023-04-03T14:47:45;1.80;;;0.60;;
17361;SDS011;8798;51.938;4.348;2023-04-03T14:50:16;1.17;;;0.60;;
17361;SDS011;8798;51.938;4.348;2023-04-03T14:52:47;3.57;;;0.73;;
17361;SDS011;8798;51.938;4.348;2023-04-03T14:55:17;2.70;;;0.90;;
17361;SDS011;8798;51.938;4.348;2023-04-03T14:57:48;1.00;;;0.67;;
17361;SDS011;8798;51.938;4.348;2023-04-03T15:00:16;3.20;;;0.80;;
17361;SDS011;8798;51.938;4.348;2023-04-03T15:02:46;2.47;;;0.77;;
17361;SDS011;8798;51.938;4.348;2023-04-03T15:05:15;1.30;;;0.63;;
17361;SDS011;8798;51.938;4.348;2023-04-03T15:07:44;2.57;;;0.90;;
17361;SDS011;8798;51.938;4.348;2023-04-03T15:10:16;3.13;;;0.90;;
17361;SDS011;8798;51.938;4.348;2023-04-03T15:12:46;1.33;;;0.70;;
17361;SDS011;8798;51.938;4.348;2023-04-03T15:15:17;1.40;;;0.60;;
17361;SDS011;8798;51.938;4.348;2023-04-03T15:17:47;1.73;;;0.70;;
17361;SDS011;8798;51.938;4.348;2023-04-03T15:20:22;3.00;;;0.80;;
17361;SDS011;8798;51.938;4.348;2023-04-03T15:22:52;1.33;;;0.77;;
17361;SDS011;8798;51.938;4.348;2023-04-03T15:25:22;1.53;;;0.60;;
17361;SDS011;8798;51.938;4.348;2023-04-03T15:27:52;0.87;;;0.60;;
17361;SDS011;8798;51.938;4.348;2023-04-03T15:30:20;1.30;;;0.70;;
17361;SDS011;8798;51.938;4.348;2023-04-03T15:32:48;1.67;;;0.60;;
17361;SDS011;8798;51.938;4.348;2023-04-03T15:35:16;1.53;;;0.63;;
17361;SDS011;8798;51.938;4.348;2023-04-03T15:37:44;1.27;;;0.80;;
17361;SDS011;8798;51.938;4.348;2023-04-03T15:40:12;1.57;;;0.70;;
17361;SDS011;8798;51.938;4.348;2023-04-03T15:42:41;0.70;;;0.63;;
17361;SDS011;8798;51.938;4.348;2023-04-03T15:45:18;1.73;;;0.77;;
17361;SDS011;8798;51.938;4.348;2023-04-03T15:47:49;1.40;;;0.90;;
17361;SDS011;8798;51.938;4.348;2023-04-03T15:50:17;1.33;;;0.70;;
17361;SDS011;8798;51.938;4.348;2023-04-03T15:52:48;1.80;;;0.70;;
17361;SDS011;8798;51.938;4.348;2023-04-03T15:55:20;1.43;;;0.80;;
17361;SDS011;8798;51.938;4.348;2023-04-03T15:57:49;2.20;;;0.70;;
17361;SDS011;8798;51.938;4.348;2023-04-03T16:00:21;2.13;;;0.83;;